Terminal Aerodrome Forecast
Issued by NWS

Home | Current Version | Previous Version | Text Only | Print | Product List | Glossary Off
Versions: 1 2 3 4 5 6 7 8 9 10 11 12 13 14 15 16 17 18 19 20 21

844
FTUS43 KMPX 291407 AAC
TAFRNH
TAF AMD
KRNH 291407Z 2914/3012 01004KT 6SM BR BKN007
      TEMPO 2915/2916 SCT015
     FM291600 03007KT P6SM SCT025 BKN035
     FM300000 04006KT P6SM SCT250=

USA.gov is the U.S. government's official web portal to all federal, state and local government web resources and services.